sensor_id;sensor_type;location;lat;lon;timestamp;pressure;altitude;pressure_sealevel;temperature;humidity
77799;BME280;66989;50.426;15.352;2024-01-16T00:00:31;96584.34;;;-1.26;99.02
77799;BME280;66989;50.426;15.352;2024-01-16T00:02:57;96581.50;;;-1.22;98.50
77799;BME280;66989;50.426;15.352;2024-01-16T00:05:22;96562.47;;;-1.21;98.06
77799;BME280;66989;50.426;15.352;2024-01-16T00:07:48;96583.94;;;-1.19;98.28
77799;BME280;66989;50.426;15.352;2024-01-16T00:10:13;96589.78;;;-1.15;98.67
77799;BME280;66989;50.426;15.352;2024-01-16T00:12:39;96595.59;;;-1.11;99.23
77799;BME280;66989;50.426;15.352;2024-01-16T00:15:06;96605.28;;;-1.15;99.89
77799;BME280;66989;50.426;15.352;2024-01-16T00:17:31;96603.69;;;-1.18;99.77
77799;BME280;66989;50.426;15.352;2024-01-16T00:19:56;96608.97;;;-1.19;100.00
77799;BME280;66989;50.426;15.352;2024-01-16T00:22:28;96608.97;;;-1.19;100.00
77799;BME280;66989;50.426;15.352;2024-01-16T00:24:54;96601.22;;;-1.19;100.00
77799;BME280;66989;50.426;15.352;2024-01-16T00:27:19;96601.09;;;-1.18;100.00
77799;BME280;66989;50.426;15.352;2024-01-16T00:29:44;96611.34;;;-1.16;100.00
77799;BME280;66989;50.426;15.352;2024-01-16T00:32:10;96613.78;;;-1.13;100.00
77799;BME280;66989;50.426;15.352;2024-01-16T00:34:35;96620.72;;;-1.13;100.00
77799;BME280;66989;50.426;15.352;2024-01-16T00:37:01;96615.63;;;-1.15;99.26
77799;BME280;66989;50.426;15.352;2024-01-16T00:39:26;96616.53;;;-1.16;99.54
77799;BME280;66989;50.426;15.352;2024-01-16T00:41:51;96624.53;;;-1.21;98.88
77799;BME280;66989;50.426;15.352;2024-01-16T00:44:17;96606.53;;;-1.22;97.72
77799;BME280;66989;50.426;15.352;2024-01-16T00:46:42;96607.63;;;-1.26;96.77
77799;BME280;66989;50.426;15.352;2024-01-16T00:49:07;96604.19;;;-1.27;95.72
77799;BME280;66989;50.426;15.352;2024-01-16T00:51:33;96616.28;;;-1.27;94.87
77799;BME280;66989;50.426;15.352;2024-01-16T00:53:58;96620.63;;;-1.28;93.92
77799;BME280;66989;50.426;15.352;2024-01-16T00:56:24;96633.81;;;-1.32;94.08
77799;BME280;66989;50.426;15.352;2024-01-16T00:58:52;96626.88;;;-1.32;92.51
77799;BME280;66989;50.426;15.352;2024-01-16T01:01:19;96626.25;;;-1.35;92.73
77799;BME280;66989;50.426;15.352;2024-01-16T01:03:45;96638.97;;;-1.32;91.73
77799;BME280;66989;50.426;15.352;2024-01-16T01:06:11;96637.41;;;-1.35;91.34
77799;BME280;66989;50.426;15.352;2024-01-16T01:08:36;96634.72;;;-1.33;89.94
77799;BME280;66989;50.426;15.352;2024-01-16T01:11:02;96636.50;;;-1.34;89.77
77799;BME280;66989;50.426;15.352;2024-01-16T01:13:28;96642.66;;;-1.36;90.03
77799;BME280;66989;50.426;15.352;2024-01-16T01:15:53;96638.25;;;-1.34;89.73
77799;BME280;66989;50.426;15.352;2024-01-16T01:18:19;96640.00;;;-1.35;90.32
77799;BME280;66989;50.426;15.352;2024-01-16T01:20:45;96647.81;;;-1.36;90.17
77799;BME280;66989;50.426;15.352;2024-01-16T01:23:10;96648.97;;;-1.42;90.17
77799;BME280;66989;50.426;15.352;2024-01-16T01:25:36;96656.81;;;-1.44;91.09
77799;BME280;66989;50.426;15.352;2024-01-16T01:28:01;96653.50;;;-1.46;90.14
77799;BME280;66989;50.426;15.352;2024-01-16T01:30:26;96665.84;;;-1.51;89.87
77799;BME280;66989;50.426;15.352;2024-01-16T01:32:52;96656.34;;;-1.50;90.00
77799;BME280;66989;50.426;15.352;2024-01-16T01:35:17;96663.25;;;-1.51;89.05
77799;BME280;66989;50.426;15.352;2024-01-16T01:37:45;96678.16;;;-1.56;89.13
77799;BME280;66989;50.426;15.352;2024-01-16T01:40:10;96687.91;;;-1.61;89.69
77799;BME280;66989;50.426;15.352;2024-01-16T01:42:37;96698.41;;;-1.64;89.13
77799;BME280;66989;50.426;15.352;2024-01-16T01:45:03;96690.63;;;-1.64;89.40
77799;BME280;66989;50.426;15.352;2024-01-16T01:47:30;96699.31;;;-1.65;89.24
77799;BME280;66989;50.426;15.352;2024-01-16T01:49:56;96693.47;;;-1.69;89.03
77799;BME280;66989;50.426;15.352;2024-01-16T01:52:21;96686.88;;;-1.74;89.45
77799;BME280;66989;50.426;15.352;2024-01-16T01:54:47;96707.53;;;-1.74;89.59
77799;BME280;66989;50.426;15.352;2024-01-16T01:57:12;96712.69;;;-1.74;89.31
77799;BME280;66989;50.426;15.352;2024-01-16T01:59:38;96714.44;;;-1.75;89.52
77799;BME280;66989;50.426;15.352;2024-01-16T02:02:04;96723.22;;;-1.77;88.89
77799;BME280;66989;50.426;15.352;2024-01-16T02:04:31;96726.63;;;-1.77;89.14
77799;BME280;66989;50.426;15.352;2024-01-16T02:06:57;96726.78;;;-1.80;88.98
77799;BME280;66989;50.426;15.352;2024-01-16T02:09:23;96733.69;;;-1.80;88.79
77799;BME280;66989;50.426;15.352;2024-01-16T02:11:49;96745.69;;;-1.79;88.65
77799;BME280;66989;50.426;15.352;2024-01-16T02:14:14;96737.00;;;-1.78;87.97
77799;BME280;66989;50.426;15.352;2024-01-16T02:16:41;96744.44;;;-1.72;87.47
77799;BME280;66989;50.426;15.352;2024-01-16T02:19:08;96744.31;;;-1.69;87.66
77799;BME280;66989;50.426;15.352;2024-01-16T02:21:48;96765.56;;;-1.64;89.06
77799;BME280;66989;50.426;15.352;2024-01-16T02:24:15;96759.47;;;-1.63;90.83
77799;BME280;66989;50.426;15.352;2024-01-16T02:26:42;96772.41;;;-1.63;92.04
77799;BME280;66989;50.426;15.352;2024-01-16T02:29:07;96766.56;;;-1.67;93.07
77799;BME280;66989;50.426;15.352;2024-01-16T02:31:33;96768.28;;;-1.67;93.27
77799;BME280;66989;50.426;15.352;2024-01-16T02:33:59;96767.63;;;-1.71;92.70
77799;BME280;66989;50.426;15.352;2024-01-16T02:36:27;96771.06;;;-1.70;92.42
77799;BME280;66989;50.426;15.352;2024-01-16T02:38:52;96770.22;;;-1.71;92.45
77799;BME280;66989;50.426;15.352;2024-01-16T02:41:18;96777.75;;;-1.66;91.42
77799;BME280;66989;50.426;15.352;2024-01-16T02:43:44;96779.22;;;-1.62;91.35
77799;BME280;66989;50.426;15.352;2024-01-16T02:46:10;96786.69;;;-1.56;90.33
77799;BME280;66989;50.426;15.352;2024-01-16T02:48:36;96785.59;;;-1.52;90.33
77799;BME280;66989;50.426;15.352;2024-01-16T02:51:01;96788.03;;;-1.49;90.22
77799;BME280;66989;50.426;15.352;2024-01-16T02:53:27;96792.22;;;-1.46;89.31
77799;BME280;66989;50.426;15.352;2024-01-16T02:55:54;96783.47;;;-1.44;89.29
77799;BME280;66989;50.426;15.352;2024-01-16T02:58:20;96795.41;;;-1.41;88.39
77799;BME280;66989;50.426;15.352;2024-01-16T03:00:45;96802.03;;;-1.35;88.60
77799;BME280;66989;50.426;15.352;2024-01-16T03:03:10;96802.75;;;-1.33;88.76
77799;BME280;66989;50.426;15.352;2024-01-16T03:05:36;96805.34;;;-1.33;88.67
77799;BME280;66989;50.426;15.352;2024-01-16T03:08:01;96813.94;;;-1.33;88.73
77799;BME280;66989;50.426;15.352;2024-01-16T03:10:27;96819.00;;;-1.31;88.52
77799;BME280;66989;50.426;15.352;2024-01-16T03:12:52;96806.19;;;-1.33;88.50
77799;BME280;66989;50.426;15.352;2024-01-16T03:15:18;96822.38;;;-1.29;88.34
77799;BME280;66989;50.426;15.352;2024-01-16T03:17:43;96824.28;;;-1.33;88.39
77799;BME280;66989;50.426;15.352;2024-01-16T03:20:09;96814.94;;;-1.35;88.79
77799;BME280;66989;50.426;15.352;2024-01-16T03:22:35;96817.66;;;-1.38;88.51
77799;BME280;66989;50.426;15.352;2024-01-16T03:25:00;96827.19;;;-1.39;88.09
77799;BME280;66989;50.426;15.352;2024-01-16T03:27:27;96835.06;;;-1.42;88.07
77799;BME280;66989;50.426;15.352;2024-01-16T03:29:52;96827.31;;;-1.42;89.01
77799;BME280;66989;50.426;15.352;2024-01-16T03:32:18;96834.09;;;-1.39;89.26
77799;BME280;66989;50.426;15.352;2024-01-16T03:34:43;96835.03;;;-1.41;90.81
77799;BME280;66989;50.426;15.352;2024-01-16T03:37:08;96831.84;;;-1.46;92.09
77799;BME280;66989;50.426;15.352;2024-01-16T03:39:34;96837.00;;;-1.46;92.60
77799;BME280;66989;50.426;15.352;2024-01-16T03:41:59;96830.47;;;-1.53;92.04
77799;BME280;66989;50.426;15.352;2024-01-16T03:44:24;96845.91;;;-1.51;92.07
77799;BME280;66989;50.426;15.352;2024-01-16T03:46:50;96846.78;;;-1.52;91.74
77799;BME280;66989;50.426;15.352;2024-01-16T03:49:15;96847.88;;;-1.56;91.15
77799;BME280;66989;50.426;15.352;2024-01-16T03:51:41;96857.53;;;-1.60;91.38
77799;BME280;66989;50.426;15.352;2024-01-16T03:54:11;96851.31;;;-1.56;91.12
77799;BME280;66989;50.426;15.352;2024-01-16T03:56:36;96861.63;;;-1.56;90.39
77799;BME280;66989;50.426;15.352;2024-01-16T03:59:02;96853.56;;;-1.50;90.18
77799;BME280;66989;50.426;15.352;2024-01-16T04:01:32;96859.25;;;-1.43;89.74
77799;BME280;66989;50.426;15.352;2024-01-16T04:03:58;96859.03;;;-1.38;89.86
77799;BME280;66989;50.426;15.352;2024-01-16T04:06:24;96866.66;;;-1.35;89.72
77799;BME280;66989;50.426;15.352;2024-01-16T04:08:49;96856.72;;;-1.27;88.88
77799;BME280;66989;50.426;15.352;2024-01-16T04:11:14;96859.50;;;-1.30;88.72
77799;BME280;66989;50.426;15.352;2024-01-16T04:13:40;96857.06;;;-1.33;88.55
77799;BME280;66989;50.426;15.352;2024-01-16T04:16:06;96859.88;;;-1.38;87.81
77799;BME280;66989;50.426;15.352;2024-01-16T04:18:39;96862.44;;;-1.38;87.91
77799;BME280;66989;50.426;15.352;2024-01-16T04:21:05;96864.19;;;-1.38;87.62
77799;BME280;66989;50.426;15.352;2024-01-16T04:23:31;96870.81;;;-1.33;88.04
77799;BME280;66989;50.426;15.352;2024-01-16T04:25:57;96872.25;;;-1.27;88.24
77799;BME280;66989;50.426;15.352;2024-01-16T04:28:22;96880.09;;;-1.29;88.67
77799;BME280;66989;50.426;15.352;2024-01-16T04:30:48;96885.16;;;-1.27;89.17
77799;BME280;66989;50.426;15.352;2024-01-16T04:33:14;96883.66;;;-1.31;90.50
77799;BME280;66989;50.426;15.352;2024-01-16T04:35:39;96894.69;;;-1.28;90.39
77799;BME280;66989;50.426;15.352;2024-01-16T04:38:05;96897.41;;;-1.31;90.93
77799;BME280;66989;50.426;15.352;2024-01-16T04:40:30;96899.34;;;-1.34;90.85
77799;BME280;66989;50.426;15.352;2024-01-16T04:42:55;96897.59;;;-1.34;91.53
77799;BME280;66989;50.426;15.352;2024-01-16T04:45:21;96895.00;;;-1.34;91.96
77799;BME280;66989;50.426;15.352;2024-01-16T04:47:46;96890.81;;;-1.36;93.02
77799;BME280;66989;50.426;15.352;2024-01-16T04:50:11;96887.69;;;-1.43;94.06
77799;BME280;66989;50.426;15.352;2024-01-16T04:52:37;96902.59;;;-1.48;94.92
77799;BME280;66989;50.426;15.352;2024-01-16T04:55:02;96904.47;;;-1.52;95.16
77799;BME280;66989;50.426;15.352;2024-01-16T04:57:28;96905.72;;;-1.59;94.98
77799;BME280;66989;50.426;15.352;2024-01-16T04:59:53;96914.38;;;-1.60;94.70
77799;BME280;66989;50.426;15.352;2024-01-16T05:02:19;96911.00;;;-1.62;94.56
77799;BME280;66989;50.426;15.352;2024-01-16T05:04:44;96911.19;;;-1.65;94.82
77799;BME280;66989;50.426;15.352;2024-01-16T05:07:10;96911.28;;;-1.67;94.46
77799;BME280;66989;50.426;15.352;2024-01-16T05:09:36;96927.59;;;-1.66;94.79
77799;BME280;66989;50.426;15.352;2024-01-16T05:12:02;96919.03;;;-1.67;93.94
77799;BME280;66989;50.426;15.352;2024-01-16T05:14:27;96928.97;;;-1.59;93.54
77799;BME280;66989;50.426;15.352;2024-01-16T05:16:52;96934.13;;;-1.59;93.22
77799;BME280;66989;50.426;15.352;2024-01-16T05:19:18;96939.44;;;-1.62;93.17
77799;BME280;66989;50.426;15.352;2024-01-16T05:21:44;96934.44;;;-1.65;92.67
77799;BME280;66989;50.426;15.352;2024-01-16T05:24:09;96938.00;;;-1.68;91.94
77799;BME280;66989;50.426;15.352;2024-01-16T05:26:34;96949.72;;;-1.60;91.42
77799;BME280;66989;50.426;15.352;2024-01-16T05:29:00;96943.41;;;-1.55;91.78
77799;BME280;66989;50.426;15.352;2024-01-16T05:31:25;96950.13;;;-1.51;91.86
77799;BME280;66989;50.426;15.352;2024-01-16T05:33:52;96952.69;;;-1.51;92.15
77799;BME280;66989;50.426;15.352;2024-01-16T05:36:18;96954.50;;;-1.53;92.01
77799;BME280;66989;50.426;15.352;2024-01-16T05:38:43;96953.59;;;-1.52;91.84
77799;BME280;66989;50.426;15.352;2024-01-16T05:41:09;96957.88;;;-1.51;91.56
77799;BME280;66989;50.426;15.352;2024-01-16T05:43:34;96968.97;;;-1.49;91.63
77799;BME280;66989;50.426;15.352;2024-01-16T05:46:00;96968.00;;;-1.46;91.52
77799;BME280;66989;50.426;15.352;2024-01-16T05:48:25;96967.06;;;-1.45;91.84
77799;BME280;66989;50.426;15.352;2024-01-16T05:50:51;96967.06;;;-1.45;91.61
77799;BME280;66989;50.426;15.352;2024-01-16T05:53:16;96972.16;;;-1.44;90.91
77799;BME280;66989;50.426;15.352;2024-01-16T05:55:42;96972.16;;;-1.44;90.54
77799;BME280;66989;50.426;15.352;2024-01-16T05:58:07;96978.16;;;-1.43;90.60
77799;BME280;66989;50.426;15.352;2024-01-16T06:00:33;96974.88;;;-1.47;91.51
77799;BME280;66989;50.426;15.352;2024-01-16T06:02:59;96980.84;;;-1.45;91.98
77799;BME280;66989;50.426;15.352;2024-01-16T06:05:25;96980.75;;;-1.43;92.18
77799;BME280;66989;50.426;15.352;2024-01-16T06:07:50;96979.00;;;-1.43;91.75
77799;BME280;66989;50.426;15.352;2024-01-16T06:10:15;96984.16;;;-1.43;91.64
77799;BME280;66989;50.426;15.352;2024-01-16T06:12:41;96976.50;;;-1.44;91.52
77799;BME280;66989;50.426;15.352;2024-01-16T06:15:06;96977.19;;;-1.41;90.33
77799;BME280;66989;50.426;15.352;2024-01-16T06:17:32;96976.34;;;-1.41;89.29
77799;BME280;66989;50.426;15.352;2024-01-16T06:19:59;96988.41;;;-1.42;89.55
77799;BME280;66989;50.426;15.352;2024-01-16T06:22:24;96981.53;;;-1.41;90.20
77799;BME280;66989;50.426;15.352;2024-01-16T06:24:49;96997.03;;;-1.41;91.71
77799;BME280;66989;50.426;15.352;2024-01-16T06:27:15;96998.13;;;-1.47;93.13
77799;BME280;66989;50.426;15.352;2024-01-16T06:29:48;97013.66;;;-1.47;93.43
77799;BME280;66989;50.426;15.352;2024-01-16T06:32:13;97019.13;;;-1.53;94.19
77799;BME280;66989;50.426;15.352;2024-01-16T06:34:39;97019.81;;;-1.49;94.31
77799;BME280;66989;50.426;15.352;2024-01-16T06:37:04;97031.13;;;-1.52;94.88
77799;BME280;66989;50.426;15.352;2024-01-16T06:39:29;97036.44;;;-1.55;94.97
77799;BME280;66989;50.426;15.352;2024-01-16T06:41:55;97045.03;;;-1.54;94.83
77799;BME280;66989;50.426;15.352;2024-01-16T06:44:20;97034.78;;;-1.56;94.96
77799;BME280;66989;50.426;15.352;2024-01-16T06:46:46;97040.91;;;-1.58;95.26
77799;BME280;66989;50.426;15.352;2024-01-16T06:49:11;97043.59;;;-1.60;94.70
77799;BME280;66989;50.426;15.352;2024-01-16T06:51:37;97045.13;;;-1.56;94.19
77799;BME280;66989;50.426;15.352;2024-01-16T06:54:02;97048.59;;;-1.57;93.22
77799;BME280;66989;50.426;15.352;2024-01-16T06:56:28;97045.25;;;-1.59;93.64
77799;BME280;66989;50.426;15.352;2024-01-16T06:58:54;97053.13;;;-1.62;93.77
77799;BME280;66989;50.426;15.352;2024-01-16T07:01:19;97054.22;;;-1.66;94.53
77799;BME280;66989;50.426;15.352;2024-01-16T07:03:45;97064.38;;;-1.63;94.04
77799;BME280;66989;50.426;15.352;2024-01-16T07:06:10;97057.41;;;-1.61;93.68
77799;BME280;66989;50.426;15.352;2024-01-16T07:08:35;97060.69;;;-1.57;93.21
77799;BME280;66989;50.426;15.352;2024-01-16T07:11:01;97069.84;;;-1.50;92.43
77799;BME280;66989;50.426;15.352;2024-01-16T07:13:26;97064.72;;;-1.52;92.26
77799;BME280;66989;50.426;15.352;2024-01-16T07:15:52;97062.13;;;-1.52;92.63
77799;BME280;66989;50.426;15.352;2024-01-16T07:18:17;97063.97;;;-1.54;92.27
77799;BME280;66989;50.426;15.352;2024-01-16T07:20:43;97071.38;;;-1.46;91.83
77799;BME280;66989;50.426;15.352;2024-01-16T07:23:10;97086.50;;;-1.38;90.35
77799;BME280;66989;50.426;15.352;2024-01-16T07:25:35;97089.81;;;-1.35;90.90
77799;BME280;66989;50.426;15.352;2024-01-16T07:28:01;97093.22;;;-1.34;90.54
77799;BME280;66989;50.426;15.352;2024-01-16T07:30:26;97094.81;;;-1.32;90.83
77799;BME280;66989;50.426;15.352;2024-01-16T07:32:52;97087.44;;;-1.03;95.63
77799;BME280;66989;50.426;15.352;2024-01-16T07:35:17;97093.31;;;-0.82;95.70
77799;BME280;66989;50.426;15.352;2024-01-16T07:37:42;97098.78;;;-0.89;91.84
77799;BME280;66989;50.426;15.352;2024-01-16T07:40:08;97111.25;;;-0.97;90.40
77799;BME280;66989;50.426;15.352;2024-01-16T07:42:34;97117.47;;;-1.01;90.12
77799;BME280;66989;50.426;15.352;2024-01-16T07:45:03;97114.22;;;-1.04;90.00
77799;BME280;66989;50.426;15.352;2024-01-16T07:47:31;97119.44;;;-1.06;89.13
77799;BME280;66989;50.426;15.352;2024-01-16T07:49:58;97125.81;;;-1.13;89.81
77799;BME280;66989;50.426;15.352;2024-01-16T07:52:23;97127.50;;;-1.12;89.33
77799;BME280;66989;50.426;15.352;2024-01-16T07:54:49;97117.22;;;-1.13;89.69
77799;BME280;66989;50.426;15.352;2024-01-16T07:57:14;97137.84;;;-1.12;89.90
77799;BME280;66989;50.426;15.352;2024-01-16T07:59:39;97131.97;;;-1.16;89.87
77799;BME280;66989;50.426;15.352;2024-01-16T08:02:06;97143.09;;;-1.13;89.61
77799;BME280;66989;50.426;15.352;2024-01-16T08:04:31;97146.38;;;-1.10;89.15
77799;BME280;66989;50.426;15.352;2024-01-16T08:06:57;97145.59;;;-1.12;89.15
77799;BME280;66989;50.426;15.352;2024-01-16T08:09:22;97139.50;;;-1.11;88.52
77799;BME280;66989;50.426;15.352;2024-01-16T08:11:48;97155.94;;;-1.12;88.60
77799;BME280;66989;50.426;15.352;2024-01-16T08:14:13;97155.03;;;-1.11;88.11
77799;BME280;66989;50.426;15.352;2024-01-16T08:16:39;97161.72;;;-1.07;88.54
77799;BME280;66989;50.426;15.352;2024-01-16T08:19:04;97165.56;;;-0.97;88.81
77799;BME280;66989;50.426;15.352;2024-01-16T08:21:29;97172.59;;;-0.81;88.71
77799;BME280;66989;50.426;15.352;2024-01-16T08:23:55;97156.28;;;-0.47;88.56
77799;BME280;66989;50.426;15.352;2024-01-16T08:26:20;97167.38;;;-0.11;86.64
77799;BME280;66989;50.426;15.352;2024-01-16T08:28:46;97152.34;;;0.29;84.97
77799;BME280;66989;50.426;15.352;2024-01-16T08:31:11;97163.66;;;0.44;83.59
77799;BME280;66989;50.426;15.352;2024-01-16T08:33:37;97165.44;;;0.43;83.73
77799;BME280;66989;50.426;15.352;2024-01-16T08:36:03;97169.75;;;0.27;83.59
77799;BME280;66989;50.426;15.352;2024-01-16T08:38:29;97174.91;;;0.11;84.19
77799;BME280;66989;50.426;15.352;2024-01-16T08:40:55;97167.94;;;0.12;84.42
77799;BME280;66989;50.426;15.352;2024-01-16T08:43:21;97174.97;;;-0.07;85.38
77799;BME280;66989;50.426;15.352;2024-01-16T08:45:47;97176.75;;;-0.08;85.70
77799;BME280;66989;50.426;15.352;2024-01-16T08:48:13;97182.53;;;-0.03;85.90
77799;BME280;66989;50.426;15.352;2024-01-16T08:50:41;97188.09;;;-0.11;85.78
77799;BME280;66989;50.426;15.352;2024-01-16T08:53:06;97188.50;;;-0.01;85.81
77799;BME280;66989;50.426;15.352;2024-01-16T08:55:33;97183.44;;;-0.04;86.18
77799;BME280;66989;50.426;15.352;2024-01-16T08:57:59;97180.84;;;-0.04;85.54
77799;BME280;66989;50.426;15.352;2024-01-16T09:00:24;97190.91;;;0.02;85.06
77799;BME280;66989;50.426;15.352;2024-01-16T09:02:51;97184.81;;;0.03;85.48
77799;BME280;66989;50.426;15.352;2024-01-16T09:05:16;97196.69;;;0.07;85.11
77799;BME280;66989;50.426;15.352;2024-01-16T09:07:41;97191.03;;;0.16;84.47
77799;BME280;66989;50.426;15.352;2024-01-16T09:10:07;97194.25;;;0.22;84.26
77799;BME280;66989;50.426;15.352;2024-01-16T09:12:33;97195.84;;;0.73;84.00
77799;BME280;66989;50.426;15.352;2024-01-16T09:14:58;97204.19;;;1.57;81.33
77799;BME280;66989;50.426;15.352;2024-01-16T09:17:24;97198.88;;;1.75;77.91
77799;BME280;66989;50.426;15.352;2024-01-16T09:19:51;97211.03;;;1.58;77.94
77799;BME280;66989;50.426;15.352;2024-01-16T09:22:16;97208.00;;;1.36;79.10
77799;BME280;66989;50.426;15.352;2024-01-16T09:24:43;97208.59;;;1.25;79.41
77799;BME280;66989;50.426;15.352;2024-01-16T09:27:09;97203.91;;;1.16;80.66
77799;BME280;66989;50.426;15.352;2024-01-16T09:29:35;97209.28;;;1.13;80.73
77799;BME280;66989;50.426;15.352;2024-01-16T09:32:01;97206.09;;;1.24;81.08
77799;BME280;66989;50.426;15.352;2024-01-16T09:34:26;97201.00;;;1.52;80.55
77799;BME280;66989;50.426;15.352;2024-01-16T09:36:52;97202.22;;;1.77;77.00
77799;BME280;66989;50.426;15.352;2024-01-16T09:39:17;97204.75;;;2.37;76.81
77799;BME280;66989;50.426;15.352;2024-01-16T09:41:44;97194.91;;;2.70;73.50
77799;BME280;66989;50.426;15.352;2024-01-16T09:44:10;97194.16;;;3.91;71.38
77799;BME280;66989;50.426;15.352;2024-01-16T09:46:37;97184.38;;;5.20;67.24
77799;BME280;66989;50.426;15.352;2024-01-16T09:49:03;97178.66;;;6.33;63.87
77799;BME280;66989;50.426;15.352;2024-01-16T09:51:29;97175.72;;;6.94;60.27
77799;BME280;66989;50.426;15.352;2024-01-16T09:53:54;97182.97;;;7.88;55.53
77799;BME280;66989;50.426;15.352;2024-01-16T09:56:23;97181.88;;;8.23;53.53
77799;BME280;66989;50.426;15.352;2024-01-16T09:58:50;97177.22;;;8.47;50.57
77799;BME280;66989;50.426;15.352;2024-01-16T10:01:19;97164.84;;;9.69;62.20
77799;BME280;66989;50.426;15.352;2024-01-16T10:03:44;97171.78;;;10.28;48.61
77799;BME280;66989;50.426;15.352;2024-01-16T10:06:11;97180.63;;;9.59;54.12
77799;BME280;66989;50.426;15.352;2024-01-16T10:08:37;97190.88;;;8.72;52.94
77799;BME280;66989;50.426;15.352;2024-01-16T10:11:03;97192.22;;;8.66;58.98
77799;BME280;66989;50.426;15.352;2024-01-16T10:13:29;97194.03;;;8.96;53.03
77799;BME280;66989;50.426;15.352;2024-01-16T10:15:55;97189.31;;;9.30;49.75
77799;BME280;66989;50.426;15.352;2024-01-16T10:18:28;97193.84;;;9.88;48.89
77799;BME280;66989;50.426;15.352;2024-01-16T10:21:00;97201.41;;;11.16;45.27
77799;BME280;66989;50.426;15.352;2024-01-16T10:23:26;97196.72;;;11.82;44.74
77799;BME280;66989;50.426;15.352;2024-01-16T10:26:08;97195.31;;;12.24;45.41
77799;BME280;66989;50.426;15.352;2024-01-16T10:28:43;97195.22;;;12.85;45.78
77799;BME280;66989;50.426;15.352;2024-01-16T10:31:10;97193.94;;;13.32;41.06
77799;BME280;66989;50.426;15.352;2024-01-16T10:33:36;97206.91;;;13.93;39.65
77799;BME280;66989;50.426;15.352;2024-01-16T10:36:16;97209.47;;;14.44;40.08
77799;BME280;66989;50.426;15.352;2024-01-16T10:38:44;97211.41;;;14.91;36.87
77799;BME280;66989;50.426;15.352;2024-01-16T10:41:11;97211.09;;;13.96;38.33
77799;BME280;66989;50.426;15.352;2024-01-16T10:43:38;97214.78;;;13.27;38.69
77799;BME280;66989;50.426;15.352;2024-01-16T10:48:38;97229.16;;;9.66;42.00
77799;BME280;66989;50.426;15.352;2024-01-16T10:51:05;97225.31;;;8.48;45.24
77799;BME280;66989;50.426;15.352;2024-01-16T10:53:32;97236.69;;;7.18;47.67
77799;BME280;66989;50.426;15.352;2024-01-16T10:56:00;97233.81;;;6.65;50.02
77799;BME280;66989;50.426;15.352;2024-01-16T10:58:26;97241.63;;;6.43;50.69
77799;BME280;66989;50.426;15.352;2024-01-16T11:00:54;97232.47;;;6.60;51.22
77799;BME280;66989;50.426;15.352;2024-01-16T11:03:27;97232.47;;;6.60;50.86
77799;BME280;66989;50.426;15.352;2024-01-16T11:05:57;97244.25;;;7.66;48.64
77799;BME280;66989;50.426;15.352;2024-01-16T11:08:22;97241.47;;;7.79;47.67
77799;BME280;66989;50.426;15.352;2024-01-16T11:10:54;97237.22;;;8.10;47.61
77799;BME280;66989;50.426;15.352;2024-01-16T11:13:21;97234.38;;;8.86;46.15
77799;BME280;66989;50.426;15.352;2024-01-16T11:15:47;97236.81;;;9.29;44.73
77799;BME280;66989;50.426;15.352;2024-01-16T11:18:16;97241.81;;;9.42;44.49
77799;BME280;66989;50.426;15.352;2024-01-16T11:20:43;97239.00;;;9.24;43.74
77799;BME280;66989;50.426;15.352;2024-01-16T11:23:11;97237.94;;;9.05;44.50
77799;BME280;66989;50.426;15.352;2024-01-16T11:25:38;97243.31;;;8.11;45.91
77799;BME280;66989;50.426;15.352;2024-01-16T11:28:14;97258.50;;;7.30;47.85
77799;BME280;66989;50.426;15.352;2024-01-16T11:30:40;97251.41;;;6.52;50.15
77799;BME280;66989;50.426;15.352;2024-01-16T11:33:06;97250.72;;;6.15;51.64
77799;BME280;66989;50.426;15.352;2024-01-16T11:35:36;97255.50;;;5.97;52.21
77799;BME280;66989;50.426;15.352;2024-01-16T11:38:16;97241.56;;;6.21;52.27
77799;BME280;66989;50.426;15.352;2024-01-16T11:40:41;97234.69;;;5.96;53.25
77799;BME280;66989;50.426;15.352;2024-01-16T11:46:01;97230.94;;;5.02;56.62
77799;BME280;66989;50.426;15.352;2024-01-16T11:48:27;97248.50;;;4.62;58.00
77799;BME280;66989;50.426;15.352;2024-01-16T11:50:54;97244.03;;;4.39;59.06
77799;BME280;66989;50.426;15.352;2024-01-16T11:53:38;97245.47;;;4.17;60.00
77799;BME280;66989;50.426;15.352;2024-01-16T12:01:50;97243.25;;;5.13;56.83
77799;BME280;66989;50.426;15.352;2024-01-16T12:04:17;97246.59;;;5.76;55.01
77799;BME280;66989;50.426;15.352;2024-01-16T12:06:57;97238.44;;;6.51;53.12
77799;BME280;66989;50.426;15.352;2024-01-16T12:09:26;97242.94;;;6.49;51.39
77799;BME280;66989;50.426;15.352;2024-01-16T12:12:10;97238.53;;;6.49;57.73
77799;BME280;66989;50.426;15.352;2024-01-16T12:14:37;97243.22;;;6.68;56.00
77799;BME280;66989;50.426;15.352;2024-01-16T12:17:13;97240.16;;;6.96;60.94
77799;BME280;66989;50.426;15.352;2024-01-16T12:19:39;97241.13;;;7.07;54.88
77799;BME280;66989;50.426;15.352;2024-01-16T12:22:09;97233.69;;;6.44;52.52
77799;BME280;66989;50.426;15.352;2024-01-16T12:24:36;97248.28;;;6.01;53.72
77799;BME280;66989;50.426;15.352;2024-01-16T12:27:01;97245.22;;;5.59;54.98
77799;BME280;66989;50.426;15.352;2024-01-16T12:29:27;97251.59;;;5.31;55.68
77799;BME280;66989;50.426;15.352;2024-01-16T12:32:05;97253.00;;;4.73;58.65
77799;BME280;66989;50.426;15.352;2024-01-16T12:34:30;97260.81;;;4.34;61.15
77799;BME280;66989;50.426;15.352;2024-01-16T12:37:04;97258.03;;;3.98;63.78
77799;BME280;66989;50.426;15.352;2024-01-16T12:39:31;97267.78;;;3.81;64.60
77799;BME280;66989;50.426;15.352;2024-01-16T12:41:56;97273.06;;;3.67;65.35
77799;BME280;66989;50.426;15.352;2024-01-16T12:44:27;97270.69;;;3.77;66.72
77799;BME280;66989;50.426;15.352;2024-01-16T12:46:56;97269.53;;;4.08;66.17
77799;BME280;66989;50.426;15.352;2024-01-16T12:49:23;97269.38;;;4.37;63.91
77799;BME280;66989;50.426;15.352;2024-01-16T12:51:48;97263.06;;;4.53;64.21
77799;BME280;66989;50.426;15.352;2024-01-16T12:54:16;97257.63;;;4.69;62.94
77799;BME280;66989;50.426;15.352;2024-01-16T12:56:43;97260.44;;;4.66;63.33
77799;BME280;66989;50.426;15.352;2024-01-16T12:59:13;97260.75;;;4.49;63.73